Главная страница
METAR-TAF:

METAR-TAF

Аэропорты :

Бахрейн, Бахрейн

широта: 26-16N, долгота: 050-39E, высота над уровнем моря: 2 м

Текущие метеонаблюдения

Эта сводка был подготовлена 23 минут назад, в 18:30 UTC
Ветер 14 Узел от юго-восточный
Температура 27°C
Влажность 79%
Давление 1012 hPa
Видимость 10 км и более
Нет облачности ниже 1500 м, и нет кучево-дождевой облачности

METAR: OBBI 151830Z 13014KT CAVOK 27/23 Q1012 NOSIG

Время: 21:53 (18:53 UTC)

Прогноз

Эта сводка был подготовлена 1 час и 53 минут назад, в 17:00 UTC
Прогноз действительный с 15-го 18 UTC до 17-го 00 UTC
Ветер 15 Узел от юго-восточный
Видимость 10 км и более
Нет облачности ниже 1500 м, и нет кучево-дождевой облачности
изменения
С 16-го 08 UTC до 16-го 10 UTC
Ветер 10 Узел от северо-северо-восточный

TAF: OBBI 151700Z 1518/1700 13015KT CAVOK BECMG 1608/1610 02010KT

Метеонаблюдения и прогнозы для более 4000 аэропортов (сводки METAR и TAF).

Имеющиеся станции представлены на карте желтыми и красными точками.

Чтобы увидеть название станции, наведите на нее мышь.

Затем щелкните, чтобы увидеть метеонаблюдения и метеопрогнозы.

Управление картой: чтобы увеличить масштаб, щелкните зеленые кнопки с черным крестиком; чтобы уменьшить масштаб, щелкните зеленую кнопку с тире; для просмотра соседних карт щелкайте зеленые стрелки.


METAR-TAF: